sensor_id;sensor_type;location;lat;lon;timestamp;P1;durP1;ratioP1;P2;durP2;ratioP2
54408;SDS011;40315;48.620;9.828;2024-03-02T02:01:55;27.67;;;16.35;;
54408;SDS011;40315;48.620;9.828;2024-03-02T02:04:22;27.02;;;16.73;;
54408;SDS011;40315;48.620;9.828;2024-03-02T02:06:52;26.42;;;16.95;;
54408;SDS011;40315;48.620;9.828;2024-03-02T02:09:20;27.83;;;17.30;;
54408;SDS011;40315;48.620;9.828;2024-03-02T02:11:49;29.13;;;17.05;;
54408;SDS011;40315;48.620;9.828;2024-03-02T02:14:17;29.50;;;17.05;;
54408;SDS011;40315;48.620;9.828;2024-03-02T02:16:44;26.92;;;17.25;;
54408;SDS011;40315;48.620;9.828;2024-03-02T02:19:15;27.77;;;17.42;;
54408;SDS011;40315;48.620;9.828;2024-03-02T02:21:43;30.77;;;17.98;;
54408;SDS011;40315;48.620;9.828;2024-03-02T02:24:11;28.25;;;18.02;;
54408;SDS011;40315;48.620;9.828;2024-03-02T02:26:38;29.15;;;17.92;;
54408;SDS011;40315;48.620;9.828;2024-03-02T02:29:07;32.20;;;18.48;;
54408;SDS011;40315;48.620;9.828;2024-03-02T02:31:37;26.98;;;16.75;;
54408;SDS011;40315;48.620;9.828;2024-03-02T02:34:04;28.38;;;16.85;;
54408;SDS011;40315;48.620;9.828;2024-03-02T02:36:31;29.92;;;17.25;;
54408;SDS011;40315;48.620;9.828;2024-03-02T02:39:02;29.27;;;17.25;;
54408;SDS011;40315;48.620;9.828;2024-03-02T02:41:32;31.88;;;18.02;;
54408;SDS011;40315;48.620;9.828;2024-03-02T02:43:59;32.03;;;17.63;;
54408;SDS011;40315;48.620;9.828;2024-03-02T02:46:26;30.55;;;17.95;;
54408;SDS011;40315;48.620;9.828;2024-03-02T02:48:55;28.25;;;17.02;;
54408;SDS011;40315;48.620;9.828;2024-03-02T02:51:22;30.10;;;17.33;;
54408;SDS011;40315;48.620;9.828;2024-03-02T02:53:50;31.60;;;17.65;;
54408;SDS011;40315;48.620;9.828;2024-03-02T02:56:19;33.83;;;17.80;;
54408;SDS011;40315;48.620;9.828;2024-03-02T02:58:46;29.52;;;18.25;;
54408;SDS011;40315;48.620;9.828;2024-03-02T03:01:15;29.77;;;18.08;;
54408;SDS011;40315;48.620;9.828;2024-03-02T03:03:45;37.17;;;18.95;;
54408;SDS011;40315;48.620;9.828;2024-03-02T03:06:12;35.47;;;19.73;;
54408;SDS011;40315;48.620;9.828;2024-03-02T03:08:39;34.17;;;19.40;;
54408;SDS011;40315;48.620;9.828;2024-03-02T03:11:06;33.58;;;18.48;;
54408;SDS011;40315;48.620;9.828;2024-03-02T03:13:35;32.20;;;17.63;;
54408;SDS011;40315;48.620;9.828;2024-03-02T03:16:02;33.45;;;18.27;;
54408;SDS011;40315;48.620;9.828;2024-03-02T03:18:29;28.15;;;16.65;;
54408;SDS011;40315;48.620;9.828;2024-03-02T03:20:56;30.83;;;17.02;;
54408;SDS011;40315;48.620;9.828;2024-03-02T03:23:23;25.63;;;15.57;;
54408;SDS011;40315;48.620;9.828;2024-03-02T03:25:51;28.25;;;16.27;;
54408;SDS011;40315;48.620;9.828;2024-03-02T03:28:18;29.48;;;16.20;;
54408;SDS011;40315;48.620;9.828;2024-03-02T03:30:46;30.08;;;16.30;;
54408;SDS011;40315;48.620;9.828;2024-03-02T03:33:15;27.90;;;15.73;;
54408;SDS011;40315;48.620;9.828;2024-03-02T03:35:45;26.40;;;16.25;;
54408;SDS011;40315;48.620;9.828;2024-03-02T03:38:12;26.35;;;15.70;;
54408;SDS011;40315;48.620;9.828;2024-03-02T03:40:39;28.02;;;15.93;;
54408;SDS011;40315;48.620;9.828;2024-03-02T03:43:07;29.65;;;16.23;;
54408;SDS011;40315;48.620;9.828;2024-03-02T03:45:34;30.30;;;16.67;;
54408;SDS011;40315;48.620;9.828;2024-03-02T03:48:01;31.13;;;17.40;;
54408;SDS011;40315;48.620;9.828;2024-03-02T03:50:28;32.17;;;17.70;;
54408;SDS011;40315;48.620;9.828;2024-03-02T03:52:55;30.88;;;17.02;;
54408;SDS011;40315;48.620;9.828;2024-03-02T03:55:22;27.98;;;15.77;;
54408;SDS011;40315;48.620;9.828;2024-03-02T03:57:49;30.25;;;17.60;;
54408;SDS011;40315;48.620;9.828;2024-03-02T04:00:16;29.77;;;16.83;;
54408;SDS011;40315;48.620;9.828;2024-03-02T04:02:44;29.45;;;16.17;;
54408;SDS011;40315;48.620;9.828;2024-03-02T04:05:12;32.17;;;17.17;;
54408;SDS011;40315;48.620;9.828;2024-03-02T04:07:41;33.42;;;17.67;;
54408;SDS011;40315;48.620;9.828;2024-03-02T04:10:08;30.50;;;17.02;;
54408;SDS011;40315;48.620;9.828;2024-03-02T04:12:37;31.20;;;16.52;;
54408;SDS011;40315;48.620;9.828;2024-03-02T04:15:04;28.30;;;16.58;;
54408;SDS011;40315;48.620;9.828;2024-03-02T04:17:32;28.20;;;16.17;;
54408;SDS011;40315;48.620;9.828;2024-03-02T04:20:01;31.67;;;16.02;;
54408;SDS011;40315;48.620;9.828;2024-03-02T04:22:32;30.70;;;16.90;;
54408;SDS011;40315;48.620;9.828;2024-03-02T04:25:00;32.33;;;16.80;;
54408;SDS011;40315;48.620;9.828;2024-03-02T04:27:27;28.38;;;15.98;;
54408;SDS011;40315;48.620;9.828;2024-03-02T04:29:54;27.35;;;15.70;;
54408;SDS011;40315;48.620;9.828;2024-03-02T04:32:21;26.67;;;16.35;;
54408;SDS011;40315;48.620;9.828;2024-03-02T04:34:51;27.75;;;15.65;;
54408;SDS011;40315;48.620;9.828;2024-03-02T04:37:18;29.70;;;15.60;;
54408;SDS011;40315;48.620;9.828;2024-03-02T04:39:48;28.30;;;16.67;;
54408;SDS011;40315;48.620;9.828;2024-03-02T04:42:15;28.73;;;15.93;;
54408;SDS011;40315;48.620;9.828;2024-03-02T04:44:42;27.30;;;15.85;;
54408;SDS011;40315;48.620;9.828;2024-03-02T04:47:09;31.10;;;17.83;;
54408;SDS011;40315;48.620;9.828;2024-03-02T04:49:36;29.55;;;16.33;;
54408;SDS011;40315;48.620;9.828;2024-03-02T04:52:05;30.23;;;16.13;;
54408;SDS011;40315;48.620;9.828;2024-03-02T04:54:32;30.42;;;17.20;;
54408;SDS011;40315;48.620;9.828;2024-03-02T04:57:23;30.58;;;17.25;;
54408;SDS011;40315;48.620;9.828;2024-03-02T04:59:50;31.33;;;17.02;;
54408;SDS011;40315;48.620;9.828;2024-03-02T05:02:17;32.13;;;16.88;;
54408;SDS011;40315;48.620;9.828;2024-03-02T05:04:43;29.48;;;16.98;;
54408;SDS011;40315;48.620;9.828;2024-03-02T05:07:10;34.03;;;16.67;;
54408;SDS011;40315;48.620;9.828;2024-03-02T05:09:37;33.40;;;18.08;;
54408;SDS011;40315;48.620;9.828;2024-03-02T05:12:04;30.90;;;16.75;;
54408;SDS011;40315;48.620;9.828;2024-03-02T05:15:09;29.75;;;15.98;;
54408;SDS011;40315;48.620;9.828;2024-03-02T05:17:36;30.70;;;15.55;;
54408;SDS011;40315;48.620;9.828;2024-03-02T05:20:04;30.70;;;16.55;;
54408;SDS011;40315;48.620;9.828;2024-03-02T05:22:35;30.65;;;16.95;;
54408;SDS011;40315;48.620;9.828;2024-03-02T05:25:03;29.30;;;16.33;;
54408;SDS011;40315;48.620;9.828;2024-03-02T05:27:33;32.25;;;16.70;;
54408;SDS011;40315;48.620;9.828;2024-03-02T05:30:00;31.75;;;17.45;;
54408;SDS011;40315;48.620;9.828;2024-03-02T05:32:29;30.27;;;17.88;;
54408;SDS011;40315;48.620;9.828;2024-03-02T05:34:55;30.60;;;16.42;;
54408;SDS011;40315;48.620;9.828;2024-03-02T05:37:22;32.67;;;17.33;;
54408;SDS011;40315;48.620;9.828;2024-03-02T05:39:50;34.72;;;18.00;;
54408;SDS011;40315;48.620;9.828;2024-03-02T05:42:16;34.22;;;18.02;;
54408;SDS011;40315;48.620;9.828;2024-03-02T05:44:46;33.17;;;17.40;;
54408;SDS011;40315;48.620;9.828;2024-03-02T05:47:13;30.98;;;17.35;;
54408;SDS011;40315;48.620;9.828;2024-03-02T05:49:41;32.85;;;17.77;;
54408;SDS011;40315;48.620;9.828;2024-03-02T05:52:10;30.55;;;16.73;;
54408;SDS011;40315;48.620;9.828;2024-03-02T05:54:37;30.58;;;17.42;;
54408;SDS011;40315;48.620;9.828;2024-03-02T05:57:05;30.75;;;17.52;;
54408;SDS011;40315;48.620;9.828;2024-03-02T05:59:51;30.27;;;16.05;;
54408;SDS011;40315;48.620;9.828;2024-03-02T06:02:21;32.15;;;17.38;;
54408;SDS011;40315;48.620;9.828;2024-03-02T06:04:52;30.85;;;17.20;;
54408;SDS011;40315;48.620;9.828;2024-03-02T06:07:21;34.38;;;17.27;;
54408;SDS011;40315;48.620;9.828;2024-03-02T06:09:48;31.20;;;17.40;;
54408;SDS011;40315;48.620;9.828;2024-03-02T06:12:16;32.55;;;17.75;;
54408;SDS011;40315;48.620;9.828;2024-03-02T06:14:44;32.80;;;17.90;;
54408;SDS011;40315;48.620;9.828;2024-03-02T06:17:13;30.48;;;17.00;;
54408;SDS011;40315;48.620;9.828;2024-03-02T06:19:40;30.67;;;17.73;;
54408;SDS011;40315;48.620;9.828;2024-03-02T06:22:08;30.88;;;18.42;;
54408;SDS011;40315;48.620;9.828;2024-03-02T06:24:35;33.28;;;18.58;;
54408;SDS011;40315;48.620;9.828;2024-03-02T06:27:03;34.22;;;18.80;;
54408;SDS011;40315;48.620;9.828;2024-03-02T06:29:32;35.90;;;20.05;;
54408;SDS011;40315;48.620;9.828;2024-03-02T06:31:59;34.67;;;19.30;;
54408;SDS011;40315;48.620;9.828;2024-03-02T06:34:26;33.20;;;19.63;;
54408;SDS011;40315;48.620;9.828;2024-03-02T06:36:53;33.97;;;19.02;;
54408;SDS011;40315;48.620;9.828;2024-03-02T06:39:22;30.13;;;18.50;;
54408;SDS011;40315;48.620;9.828;2024-03-02T06:41:50;33.38;;;19.25;;
54408;SDS011;40315;48.620;9.828;2024-03-02T06:44:20;32.38;;;18.42;;
54408;SDS011;40315;48.620;9.828;2024-03-02T06:46:47;33.20;;;18.60;;
54408;SDS011;40315;48.620;9.828;2024-03-02T06:49:14;31.50;;;17.98;;
54408;SDS011;40315;48.620;9.828;2024-03-02T06:51:40;29.67;;;18.25;;
54408;SDS011;40315;48.620;9.828;2024-03-02T06:54:07;29.80;;;17.80;;
54408;SDS011;40315;48.620;9.828;2024-03-02T06:56:35;34.65;;;18.70;;
54408;SDS011;40315;48.620;9.828;2024-03-02T06:59:03;34.25;;;18.85;;
54408;SDS011;40315;48.620;9.828;2024-03-02T07:01:30;35.28;;;19.58;;
54408;SDS011;40315;48.620;9.828;2024-03-02T07:03:57;31.63;;;18.48;;
54408;SDS011;40315;48.620;9.828;2024-03-02T07:06:24;34.63;;;19.58;;
54408;SDS011;40315;48.620;9.828;2024-03-02T07:08:51;33.05;;;18.63;;
54408;SDS011;40315;48.620;9.828;2024-03-02T07:11:18;30.80;;;18.55;;
54408;SDS011;40315;48.620;9.828;2024-03-02T07:13:46;29.13;;;18.40;;
54408;SDS011;40315;48.620;9.828;2024-03-02T07:16:13;29.33;;;18.60;;
54408;SDS011;40315;48.620;9.828;2024-03-02T07:18:55;31.85;;;19.55;;
54408;SDS011;40315;48.620;9.828;2024-03-02T07:21:24;29.85;;;17.73;;
54408;SDS011;40315;48.620;9.828;2024-03-02T07:23:51;33.80;;;20.45;;
54408;SDS011;40315;48.620;9.828;2024-03-02T07:26:18;30.75;;;18.23;;
54408;SDS011;40315;48.620;9.828;2024-03-02T07:28:47;26.58;;;17.23;;
54408;SDS011;40315;48.620;9.828;2024-03-02T07:31:15;27.48;;;17.65;;
54408;SDS011;40315;48.620;9.828;2024-03-02T07:33:43;30.52;;;18.25;;
54408;SDS011;40315;48.620;9.828;2024-03-02T07:36:11;29.83;;;18.25;;
54408;SDS011;40315;48.620;9.828;2024-03-02T07:38:40;27.95;;;17.85;;
54408;SDS011;40315;48.620;9.828;2024-03-02T07:41:09;27.67;;;17.85;;
54408;SDS011;40315;48.620;9.828;2024-03-02T07:43:37;29.27;;;18.02;;
54408;SDS011;40315;48.620;9.828;2024-03-02T07:46:07;28.45;;;17.17;;
54408;SDS011;40315;48.620;9.828;2024-03-02T07:48:34;26.95;;;16.77;;
54408;SDS011;40315;48.620;9.828;2024-03-02T07:51:01;27.20;;;16.88;;
54408;SDS011;40315;48.620;9.828;2024-03-02T07:53:29;26.63;;;16.73;;
54408;SDS011;40315;48.620;9.828;2024-03-02T07:55:56;26.70;;;16.65;;
54408;SDS011;40315;48.620;9.828;2024-03-02T07:58:27;25.00;;;15.82;;
54408;SDS011;40315;48.620;9.828;2024-03-02T08:00:57;24.83;;;15.85;;
54408;SDS011;40315;48.620;9.828;2024-03-02T08:03:29;23.30;;;15.75;;
54408;SDS011;40315;48.620;9.828;2024-03-02T08:05:57;24.60;;;15.73;;
54408;SDS011;40315;48.620;9.828;2024-03-02T08:08:24;22.17;;;14.07;;
54408;SDS011;40315;48.620;9.828;2024-03-02T08:10:51;19.55;;;12.77;;
54408;SDS011;40315;48.620;9.828;2024-03-02T08:13:18;17.35;;;11.57;;
54408;SDS011;40315;48.620;9.828;2024-03-02T08:15:45;17.80;;;12.50;;
54408;SDS011;40315;48.620;9.828;2024-03-02T08:18:12;23.13;;;14.27;;
54408;SDS011;40315;48.620;9.828;2024-03-02T08:20:43;21.50;;;13.68;;
54408;SDS011;40315;48.620;9.828;2024-03-02T08:23:10;18.35;;;12.95;;
54408;SDS011;40315;48.620;9.828;2024-03-02T08:25:37;17.92;;;12.13;;
54408;SDS011;40315;48.620;9.828;2024-03-02T08:28:04;18.98;;;12.18;;
54408;SDS011;40315;48.620;9.828;2024-03-02T08:30:32;17.30;;;12.25;;
54408;SDS011;40315;48.620;9.828;2024-03-02T08:33:01;15.88;;;11.27;;
54408;SDS011;40315;48.620;9.828;2024-03-02T08:35:28;14.43;;;10.48;;
54408;SDS011;40315;48.620;9.828;2024-03-02T08:37:58;14.70;;;9.98;;
54408;SDS011;40315;48.620;9.828;2024-03-02T08:40:26;13.35;;;9.35;;
54408;SDS011;40315;48.620;9.828;2024-03-02T08:42:53;12.15;;;9.30;;
54408;SDS011;40315;48.620;9.828;2024-03-02T08:45:20;12.68;;;9.10;;
54408;SDS011;40315;48.620;9.828;2024-03-02T08:47:49;11.95;;;8.95;;
54408;SDS011;40315;48.620;9.828;2024-03-02T08:50:18;11.32;;;8.68;;
54408;SDS011;40315;48.620;9.828;2024-03-02T08:52:45;11.90;;;8.77;;
54408;SDS011;40315;48.620;9.828;2024-03-02T08:55:14;12.15;;;9.02;;
54408;SDS011;40315;48.620;9.828;2024-03-02T08:57:41;14.15;;;10.40;;
54408;SDS011;40315;48.620;9.828;2024-03-02T09:00:08;13.70;;;10.15;;
54408;SDS011;40315;48.620;9.828;2024-03-02T09:02:36;13.50;;;9.93;;
54408;SDS011;40315;48.620;9.828;2024-03-02T09:05:03;13.70;;;9.98;;
54408;SDS011;40315;48.620;9.828;2024-03-02T09:07:31;12.73;;;9.90;;
54408;SDS011;40315;48.620;9.828;2024-03-02T09:09:58;11.80;;;9.23;;
54408;SDS011;40315;48.620;9.828;2024-03-02T09:12:29;11.75;;;9.25;;
54408;SDS011;40315;48.620;9.828;2024-03-02T09:14:56;13.20;;;9.30;;
54408;SDS011;40315;48.620;9.828;2024-03-02T09:17:25;11.80;;;9.88;;
54408;SDS011;40315;48.620;9.828;2024-03-02T09:19:52;12.45;;;9.60;;
54408;SDS011;40315;48.620;9.828;2024-03-02T09:22:19;12.65;;;9.88;;
54408;SDS011;40315;48.620;9.828;2024-03-02T09:24:48;13.77;;;9.48;;
54408;SDS011;40315;48.620;9.828;2024-03-02T09:27:15;12.32;;;9.55;;
54408;SDS011;40315;48.620;9.828;2024-03-02T09:29:44;12.93;;;10.00;;
54408;SDS011;40315;48.620;9.828;2024-03-02T09:34:42;12.38;;;9.15;;
54408;SDS011;40315;48.620;9.828;2024-03-02T09:37:09;12.50;;;9.02;;
54408;SDS011;40315;48.620;9.828;2024-03-02T09:39:36;10.48;;;8.65;;
54408;SDS011;40315;48.620;9.828;2024-03-02T09:42:03;10.35;;;8.65;;
54408;SDS011;40315;48.620;9.828;2024-03-02T09:44:31;10.70;;;8.55;;
54408;SDS011;40315;48.620;9.828;2024-03-02T09:47:01;13.70;;;8.88;;
54408;SDS011;40315;48.620;9.828;2024-03-02T09:49:28;9.95;;;8.27;;
54408;SDS011;40315;48.620;9.828;2024-03-02T09:51:55;9.70;;;8.00;;
54408;SDS011;40315;48.620;9.828;2024-03-02T09:54:25;11.93;;;9.05;;
54408;SDS011;40315;48.620;9.828;2024-03-02T09:56:53;11.50;;;8.27;;
54408;SDS011;40315;48.620;9.828;2024-03-02T09:59:23;10.55;;;8.32;;
54408;SDS011;40315;48.620;9.828;2024-03-02T10:01:58;9.88;;;8.32;;
54408;SDS011;40315;48.620;9.828;2024-03-02T10:04:30;10.32;;;8.15;;
54408;SDS011;40315;48.620;9.828;2024-03-02T10:07:13;12.50;;;8.40;;
54408;SDS011;40315;48.620;9.828;2024-03-02T10:09:41;10.40;;;8.35;;
54408;SDS011;40315;48.620;9.828;2024-03-02T10:12:10;10.30;;;7.95;;
54408;SDS011;40315;48.620;9.828;2024-03-02T10:14:38;11.43;;;7.70;;
54408;SDS011;40315;48.620;9.828;2024-03-02T10:17:09;10.02;;;7.55;;
54408;SDS011;40315;48.620;9.828;2024-03-02T10:19:42;10.07;;;7.53;;
54408;SDS011;40315;48.620;9.828;2024-03-02T10:22:09;10.35;;;7.78;;
54408;SDS011;40315;48.620;9.828;2024-03-02T10:24:37;11.48;;;8.32;;
54408;SDS011;40315;48.620;9.828;2024-03-02T10:27:09;11.80;;;7.97;;
54408;SDS011;40315;48.620;9.828;2024-03-02T10:29:37;10.32;;;8.18;;
54408;SDS011;40315;48.620;9.828;2024-03-02T10:32:08;10.15;;;7.80;;
54408;SDS011;40315;48.620;9.828;2024-03-02T10:34:36;11.60;;;8.57;;
54408;SDS011;40315;48.620;9.828;2024-03-02T10:37:05;11.25;;;8.35;;
54408;SDS011;40315;48.620;9.828;2024-03-02T10:39:33;10.77;;;8.43;;
54408;SDS011;40315;48.620;9.828;2024-03-02T10:42:02;10.48;;;7.88;;
54408;SDS011;40315;48.620;9.828;2024-03-02T10:44:30;10.45;;;8.27;;
54408;SDS011;40315;48.620;9.828;2024-03-02T10:46:58;11.23;;;8.48;;
54408;SDS011;40315;48.620;9.828;2024-03-02T10:49:29;11.38;;;8.40;;
54408;SDS011;40315;48.620;9.828;2024-03-02T10:51:56;11.02;;;8.32;;
54408;SDS011;40315;48.620;9.828;2024-03-02T10:54:25;9.90;;;7.55;;
54408;SDS011;40315;48.620;9.828;2024-03-02T10:56:55;9.80;;;7.55;;
54408;SDS011;40315;48.620;9.828;2024-03-02T10:59:26;9.45;;;7.25;;
54408;SDS011;40315;48.620;9.828;2024-03-02T11:01:56;9.32;;;6.93;;
54408;SDS011;40315;48.620;9.828;2024-03-02T11:04:25;9.25;;;6.20;;
54408;SDS011;40315;48.620;9.828;2024-03-02T11:06:54;9.32;;;6.85;;
54408;SDS011;40315;48.620;9.828;2024-03-02T11:09:27;7.32;;;5.95;;
54408;SDS011;40315;48.620;9.828;2024-03-02T11:12:00;7.47;;;5.65;;
54408;SDS011;40315;48.620;9.828;2024-03-02T11:14:30;7.03;;;5.28;;
54408;SDS011;40315;48.620;9.828;2024-03-02T11:17:01;6.63;;;4.50;;
54408;SDS011;40315;48.620;9.828;2024-03-02T11:19:29;5.38;;;4.53;;
54408;SDS011;40315;48.620;9.828;2024-03-02T11:21:57;5.22;;;3.85;;
54408;SDS011;40315;48.620;9.828;2024-03-02T11:24:29;5.93;;;3.90;;
54408;SDS011;40315;48.620;9.828;2024-03-02T11:27:01;5.93;;;5.05;;
54408;SDS011;40315;48.620;9.828;2024-03-02T11:29:43;5.65;;;4.32;;
54408;SDS011;40315;48.620;9.828;2024-03-02T11:32:15;4.13;;;3.72;;
54408;SDS011;40315;48.620;9.828;2024-03-02T11:34:44;4.43;;;3.92;;
54408;SDS011;40315;48.620;9.828;2024-03-02T11:37:13;5.55;;;4.28;;
54408;SDS011;40315;48.620;9.828;2024-03-02T11:39:42;6.07;;;4.70;;
54408;SDS011;40315;48.620;9.828;2024-03-02T11:42:11;5.30;;;3.38;;
54408;SDS011;40315;48.620;9.828;2024-03-02T11:44:41;4.88;;;3.50;;
54408;SDS011;40315;48.620;9.828;2024-03-02T11:47:10;3.88;;;3.47;;
54408;SDS011;40315;48.620;9.828;2024-03-02T11:49:39;4.93;;;3.70;;
54408;SDS011;40315;48.620;9.828;2024-03-02T11:52:07;5.60;;;3.85;;
54408;SDS011;40315;48.620;9.828;2024-03-02T11:54:36;4.65;;;3.83;;
54408;SDS011;40315;48.620;9.828;2024-03-02T11:57:07;4.55;;;3.70;;
54408;SDS011;40315;48.620;9.828;2024-03-02T11:59:34;4.85;;;3.78;;
54408;SDS011;40315;48.620;9.828;2024-03-02T12:02:03;4.95;;;4.05;;
54408;SDS011;40315;48.620;9.828;2024-03-02T12:04:31;3.67;;;2.88;;
54408;SDS011;40315;48.620;9.828;2024-03-02T12:06:59;4.40;;;3.45;;
54408;SDS011;40315;48.620;9.828;2024-03-02T12:09:27;3.80;;;2.58;;
54408;SDS011;40315;48.620;9.828;2024-03-02T12:12:04;3.97;;;3.15;;
54408;SDS011;40315;48.620;9.828;2024-03-02T12:14:33;3.38;;;2.47;;
54408;SDS011;40315;48.620;9.828;2024-03-02T12:17:01;4.47;;;3.30;;
54408;SDS011;40315;48.620;9.828;2024-03-02T12:19:29;4.90;;;3.03;;
54408;SDS011;40315;48.620;9.828;2024-03-02T12:21:56;4.07;;;2.63;;
54408;SDS011;40315;48.620;9.828;2024-03-02T12:24:24;3.10;;;2.80;;
54408;SDS011;40315;48.620;9.828;2024-03-02T12:26:53;3.75;;;2.78;;
54408;SDS011;40315;48.620;9.828;2024-03-02T12:29:21;3.58;;;2.80;;
54408;SDS011;40315;48.620;9.828;2024-03-02T12:31:51;3.42;;;2.90;;
54408;SDS011;40315;48.620;9.828;2024-03-02T12:34:18;3.55;;;2.63;;
54408;SDS011;40315;48.620;9.828;2024-03-02T12:36:46;3.47;;;2.67;;
54408;SDS011;40315;48.620;9.828;2024-03-02T12:39:15;4.43;;;2.58;;
54408;SDS011;40315;48.620;9.828;2024-03-02T12:41:42;3.83;;;2.70;;
54408;SDS011;40315;48.620;9.828;2024-03-02T12:44:10;4.68;;;2.60;;
54408;SDS011;40315;48.620;9.828;2024-03-02T12:46:37;2.60;;;2.30;;
54408;SDS011;40315;48.620;9.828;2024-03-02T12:49:09;2.53;;;2.25;;
54408;SDS011;40315;48.620;9.828;2024-03-02T12:51:38;3.42;;;2.20;;
54408;SDS011;40315;48.620;9.828;2024-03-02T12:54:06;3.20;;;2.00;;
54408;SDS011;40315;48.620;9.828;2024-03-02T12:56:35;2.58;;;2.05;;
54408;SDS011;40315;48.620;9.828;2024-03-02T12:59:02;3.33;;;2.20;;
54408;SDS011;40315;48.620;9.828;2024-03-02T13:01:32;3.10;;;2.50;;
54408;SDS011;40315;48.620;9.828;2024-03-02T13:03:59;3.97;;;2.60;;
54408;SDS011;40315;48.620;9.828;2024-03-02T13:06:27;2.90;;;2.17;;
54408;SDS011;40315;48.620;9.828;2024-03-02T13:08:54;4.55;;;2.90;;
54408;SDS011;40315;48.620;9.828;2024-03-02T13:11:21;3.17;;;2.72;;
54408;SDS011;40315;48.620;9.828;2024-03-02T13:13:49;4.60;;;3.22;;
54408;SDS011;40315;48.620;9.828;2024-03-02T13:16:17;4.15;;;3.50;;
54408;SDS011;40315;48.620;9.828;2024-03-02T13:18:45;3.50;;;3.10;;
54408;SDS011;40315;48.620;9.828;2024-03-02T13:21:12;5.00;;;3.30;;
54408;SDS011;40315;48.620;9.828;2024-03-02T13:23:41;2.90;;;2.50;;
54408;SDS011;40315;48.620;9.828;2024-03-02T13:26:08;3.33;;;2.85;;
54408;SDS011;40315;48.620;9.828;2024-03-02T13:28:38;2.90;;;2.58;;
54408;SDS011;40315;48.620;9.828;2024-03-02T13:31:05;2.70;;;2.35;;
54408;SDS011;40315;48.620;9.828;2024-03-02T13:33:35;2.75;;;2.55;;
54408;SDS011;40315;48.620;9.828;2024-03-02T13:36:02;3.30;;;3.00;;
54408;SDS011;40315;48.620;9.828;2024-03-02T13:38:29;3.15;;;2.85;;
54408;SDS011;40315;48.620;9.828;2024-03-02T13:41:00;3.30;;;3.00;;
54408;SDS011;40315;48.620;9.828;2024-03-02T13:43:27;3.20;;;2.90;;
54408;SDS011;40315;48.620;9.828;2024-03-02T13:45:57;3.15;;;2.85;;
54408;SDS011;40315;48.620;9.828;2024-03-02T13:48:24;2.83;;;2.55;;
54408;SDS011;40315;48.620;9.828;2024-03-02T13:50:53;2.53;;;2.30;;
54408;SDS011;40315;48.620;9.828;2024-03-02T13:53:20;3.00;;;2.78;;
54408;SDS011;40315;48.620;9.828;2024-03-02T13:55:47;4.15;;;2.65;;
54408;SDS011;40315;48.620;9.828;2024-03-02T13:58:15;3.70;;;3.30;;
54408;SDS011;40315;48.620;9.828;2024-03-02T14:00:42;3.70;;;3.40;;
54408;SDS011;40315;48.620;9.828;2024-03-02T14:03:11;3.80;;;3.33;;
54408;SDS011;40315;48.620;9.828;2024-03-02T14:05:38;4.03;;;3.63;;
54408;SDS011;40315;48.620;9.828;2024-03-02T14:08:05;3.88;;;3.47;;
54408;SDS011;40315;48.620;9.828;2024-03-02T14:10:32;3.67;;;3.35;;
54408;SDS011;40315;48.620;9.828;2024-03-02T14:13:03;3.58;;;3.28;;
54408;SDS011;40315;48.620;9.828;2024-03-02T14:15:32;3.70;;;3.40;;
54408;SDS011;40315;48.620;9.828;2024-03-02T14:17:59;4.20;;;3.80;;
54408;SDS011;40315;48.620;9.828;2024-03-02T14:20:26;5.93;;;4.07;;
54408;SDS011;40315;48.620;9.828;2024-03-02T14:22:52;4.35;;;3.85;;
54408;SDS011;40315;48.620;9.828;2024-03-02T14:25:19;5.43;;;3.85;;
54408;SDS011;40315;48.620;9.828;2024-03-02T14:27:46;4.30;;;3.90;;
54408;SDS011;40315;48.620;9.828;2024-03-02T14:30:13;6.15;;;4.40;;
54408;SDS011;40315;48.620;9.828;2024-03-02T14:32:42;5.40;;;4.57;;
54408;SDS011;40315;48.620;9.828;2024-03-02T14:35:09;4.93;;;4.43;;
54408;SDS011;40315;48.620;9.828;2024-03-02T14:37:36;5.72;;;3.90;;
54408;SDS011;40315;48.620;9.828;2024-03-02T14:40:06;4.95;;;4.40;;
54408;SDS011;40315;48.620;9.828;2024-03-02T14:42:34;4.82;;;4.30;;
54408;SDS011;40315;48.620;9.828;2024-03-02T14:45:02;4.70;;;4.30;;
54408;SDS011;40315;48.620;9.828;2024-03-02T14:47:31;5.10;;;4.60;;
54408;SDS011;40315;48.620;9.828;2024-03-02T14:50:01;4.80;;;4.30;;
54408;SDS011;40315;48.620;9.828;2024-03-02T14:52:31;4.50;;;3.90;;
54408;SDS011;40315;48.620;9.828;2024-03-02T14:54:58;4.28;;;3.88;;
54408;SDS011;40315;48.620;9.828;2024-03-02T14:57:25;4.40;;;4.00;;
54408;SDS011;40315;48.620;9.828;2024-03-02T14:59:52;5.15;;;4.43;;
54408;SDS011;40315;48.620;9.828;2024-03-02T15:02:19;6.55;;;4.50;;
54408;SDS011;40315;48.620;9.828;2024-03-02T15:04:48;5.53;;;4.47;;
54408;SDS011;40315;48.620;9.828;2024-03-02T15:07:17;5.85;;;5.10;;
54408;SDS011;40315;48.620;9.828;2024-03-02T15:09:44;5.32;;;4.82;;
54408;SDS011;40315;48.620;9.828;2024-03-02T15:12:11;5.78;;;4.78;;
54408;SDS011;40315;48.620;9.828;2024-03-02T15:14:39;5.47;;;4.90;;
54408;SDS011;40315;48.620;9.828;2024-03-02T15:17:14;7.00;;;5.55;;
54408;SDS011;40315;48.620;9.828;2024-03-02T15:19:41;6.85;;;5.47;;
54408;SDS011;40315;48.620;9.828;2024-03-02T15:22:11;6.57;;;5.45;;
54408;SDS011;40315;48.620;9.828;2024-03-02T15:24:40;6.07;;;5.47;;
54408;SDS011;40315;48.620;9.828;2024-03-02T15:27:07;6.35;;;5.38;;
54408;SDS011;40315;48.620;9.828;2024-03-02T15:29:34;6.15;;;5.50;;
54408;SDS011;40315;48.620;9.828;2024-03-02T15:32:01;7.82;;;6.35;;
54408;SDS011;40315;48.620;9.828;2024-03-02T15:34:31;6.35;;;5.70;;
54408;SDS011;40315;48.620;9.828;2024-03-02T15:36:58;7.05;;;6.28;;
54408;SDS011;40315;48.620;9.828;2024-03-02T15:39:26;7.10;;;6.40;;
54408;SDS011;40315;48.620;9.828;2024-03-02T15:41:55;7.35;;;6.30;;
54408;SDS011;40315;48.620;9.828;2024-03-02T15:44:22;7.05;;;5.80;;
54408;SDS011;40315;48.620;9.828;2024-03-02T15:46:49;8.20;;;6.22;;
54408;SDS011;40315;48.620;9.828;2024-03-02T15:49:16;8.15;;;6.70;;
54408;SDS011;40315;48.620;9.828;2024-03-02T15:51:43;8.57;;;7.13;;
54408;SDS011;40315;48.620;9.828;2024-03-02T15:54:11;11.23;;;7.82;;
54408;SDS011;40315;48.620;9.828;2024-03-02T15:56:38;10.38;;;7.72;;
54408;SDS011;40315;48.620;9.828;2024-03-02T15:59:10;9.75;;;8.13;;
54408;SDS011;40315;48.620;9.828;2024-03-02T16:01:37;9.75;;;7.75;;
54408;SDS011;40315;48.620;9.828;2024-03-02T16:04:07;9.70;;;8.38;;
54408;SDS011;40315;48.620;9.828;2024-03-02T16:06:34;10.02;;;7.80;;
54408;SDS011;40315;48.620;9.828;2024-03-02T16:09:01;9.98;;;7.65;;
54408;SDS011;40315;48.620;9.828;2024-03-02T16:11:30;11.30;;;8.40;;
54408;SDS011;40315;48.620;9.828;2024-03-02T16:13:59;13.18;;;9.05;;
54408;SDS011;40315;48.620;9.828;2024-03-02T16:16:27;13.93;;;9.32;;
54408;SDS011;40315;48.620;9.828;2024-03-02T16:18:55;13.70;;;9.70;;
54408;SDS011;40315;48.620;9.828;2024-03-02T16:21:24;17.08;;;11.23;;
54408;SDS011;40315;48.620;9.828;2024-03-02T16:23:51;13.85;;;10.05;;
54408;SDS011;40315;48.620;9.828;2024-03-02T16:26:19;15.43;;;9.95;;
54408;SDS011;40315;48.620;9.828;2024-03-02T16:28:46;14.38;;;10.45;;
54408;SDS011;40315;48.620;9.828;2024-03-02T16:31:13;16.10;;;10.93;;
54408;SDS011;40315;48.620;9.828;2024-03-02T16:33:46;15.63;;;10.63;;
54408;SDS011;40315;48.620;9.828;2024-03-02T16:36:13;16.75;;;11.32;;
54408;SDS011;40315;48.620;9.828;2024-03-02T16:38:42;13.77;;;10.18;;
54408;SDS011;40315;48.620;9.828;2024-03-02T16:41:09;16.10;;;11.70;;
54408;SDS011;40315;48.620;9.828;2024-03-02T16:43:36;16.35;;;11.15;;